Time;durP1;ratioP1;P1;durP2;ratioP2;P2;SDS_P1;SDS_P2;PMS_P1;PMS_P2;Temp;Humidity;BMP_temperature;BMP_pressure;BME280_temperature;BME280_humidity;BME280_pressure;Samples;Min_cycle;Max_cycle;Signal;HPM_P1;HPM_P2
2021/10/17 00:01:59;;;;;;;;;;;10.80;95.00;;;;;;5034780;28;19951;-75
2021/10/17 00:04:25;;;;;;;;;;;10.80;95.00;;;;;;5034872;28;19913;-74
2021/10/17 00:06:50;;;;;;;;;;;10.70;95.10;;;;;;5032815;28;19913;-74
2021/10/17 00:09:16;;;;;;;;;;;10.70;95.20;;;;;;5033674;28;19909;-74
2021/10/17 00:11:41;;;;;;;;;;;10.60;95.20;;;;;;5034638;28;19914;-74
2021/10/17 00:14:07;;;;;;;;;;;10.60;95.20;;;;;;5034935;28;19921;-74
2021/10/17 00:16:32;;;;;;;;;;;10.70;95.30;;;;;;5034257;28;19916;-74
2021/10/17 00:18:58;;;;;;;;;;;10.70;95.20;;;;;;5034517;28;19954;-76
2021/10/17 00:21:23;;;;;;;;;;;10.70;95.20;;;;;;5034764;28;19913;-74
2021/10/17 00:23:49;;;;;;;;;;;10.70;95.20;;;;;;5034471;28;19913;-73
2021/10/17 00:26:14;;;;;;;;;;;10.70;95.10;;;;;;5034565;28;19956;-74
2021/10/17 00:28:40;;;;;;;;;;;10.80;95.10;;;;;;5034629;28;19917;-74
2021/10/17 00:31:05;;;;;;;;;;;10.80;95.10;;;;;;5030067;28;19920;-74
2021/10/17 00:33:31;;;;;;;;;;;10.80;95.10;;;;;;5014816;28;19921;-74
2021/10/17 00:35:56;;;;;;;;;;;10.80;95.00;;;;;;5032342;28;19967;-75
2021/10/17 00:38:21;;;;;;;;;;;10.80;95.00;;;;;;5034466;28;19916;-73
2021/10/17 00:40:47;;;;;;;;;;;10.80;95.00;;;;;;5034168;28;20376;-74
2021/10/17 00:43:12;;;;;;;;;;;10.70;95.00;;;;;;5034449;28;20373;-74
2021/10/17 00:45:38;;;;;;;;;;;10.70;95.00;;;;;;5034102;28;19909;-74
2021/10/17 00:48:04;;;;;;;;;;;10.70;95.00;;;;;;5032287;28;20309;-74
2021/10/17 00:50:30;;;;;;;;;;;10.70;95.00;;;;;;5033511;28;19949;-74
2021/10/17 00:52:55;;;;;;;;;;;10.70;95.00;;;;;;5034075;28;19960;-74
2021/10/17 00:55:22;;;;;;;;;;;10.80;95.10;;;;;;5034150;28;19909;-74
2021/10/17 00:57:48;;;;;;;;;;;10.70;95.00;;;;;;5034165;28;19909;-74
2021/10/17 01:00:14;;;;;;;;;;;10.80;95.00;;;;;;5033288;28;20055;-73
2021/10/17 01:02:40;;;;;;;;;;;10.80;95.00;;;;;;5033637;28;19987;-74
2021/10/17 01:05:12;;;;;;;;;;;10.80;95.00;;;;;;5033913;28;19959;-75
2021/10/17 01:07:37;;;;;;;;;;;10.80;94.90;;;;;;5027850;28;19956;-74
2021/10/17 01:10:03;;;;;;;;;;;10.80;94.90;;;;;;5014184;28;20016;-75
2021/10/17 01:12:29;;;;;;;;;;;10.80;95.00;;;;;;5014151;28;19910;-74
2021/10/17 01:14:54;;;;;;;;;;;10.70;95.00;;;;;;5013862;28;19916;-75
2021/10/17 01:17:19;;;;;;;;;;;10.70;95.00;;;;;;5018881;28;20550;-74
2021/10/17 01:19:45;;;;;;;;;;;10.70;95.10;;;;;;5028638;28;19935;-74
2021/10/17 01:22:11;;;;;;;;;;;10.70;95.10;;;;;;5032641;28;19908;-74
2021/10/17 01:24:36;;;;;;;;;;;10.70;95.10;;;;;;5033618;28;19921;-74
2021/10/17 01:27:02;;;;;;;;;;;10.70;95.10;;;;;;5033772;28;19909;-73
2021/10/17 01:29:27;;;;;;;;;;;10.70;95.00;;;;;;5031269;28;19959;-74
2021/10/17 01:31:54;;;;;;;;;;;10.70;95.00;;;;;;5033654;28;19951;-74
2021/10/17 01:34:20;;;;;;;;;;;10.70;95.00;;;;;;5033500;28;20327;-75
2021/10/17 01:36:46;;;;;;;;;;;10.70;95.00;;;;;;5032979;28;19913;-74
2021/10/17 01:39:13;;;;;;;;;;;10.70;95.00;;;;;;5033525;28;19909;-74
2021/10/17 01:41:39;;;;;;;;;;;10.80;95.00;;;;;;5033642;28;19909;-74
2021/10/17 01:44:05;;;;;;;;;;;10.80;94.90;;;;;;5030263;28;19936;-75
2021/10/17 01:46:30;;;;;;;;;;;10.70;94.90;;;;;;5012525;28;19910;-75
2021/10/17 01:48:56;;;;;;;;;;;10.70;94.90;;;;;;5013845;28;19933;-74
2021/10/17 01:51:21;;;;;;;;;;;10.70;94.90;;;;;;5013824;28;19910;-74
2021/10/17 01:53:47;;;;;;;;;;;10.70;95.00;;;;;;5013556;28;19924;-74
2021/10/17 01:56:12;;;;;;;;;;;10.70;94.90;;;;;;5013840;28;20322;-75
2021/10/17 01:58:38;;;;;;;;;;;10.70;94.90;;;;;;5015194;28;19913;-75
2021/10/17 02:01:04;;;;;;;;;;;10.70;94.90;;;;;;5031022;28;19917;-74
2021/10/17 02:03:30;;;;;;;;;;;10.70;95.00;;;;;;5037160;28;19952;-73
2021/10/17 02:05:55;;;;;;;;;;;10.70;95.00;;;;;;5037448;28;19948;-73
2021/10/17 02:08:21;;;;;;;;;;;10.70;95.00;;;;;;5037005;28;20000;-73
2021/10/17 02:10:46;;;;;;;;;;;10.70;94.90;;;;;;5037318;28;19915;-75
2021/10/17 02:13:12;;;;;;;;;;;10.70;94.90;;;;;;5035420;28;19917;-74
2021/10/17 02:15:37;;;;;;;;;;;10.70;94.90;;;;;;5036891;28;19920;-75
2021/10/17 02:18:02;;;;;;;;;;;10.70;94.90;;;;;;5035798;28;19920;-74
2021/10/17 02:20:32;;;;;;;;;;;10.70;94.90;;;;;;5037110;28;20285;-75
2021/10/17 02:22:58;;;;;;;;;;;10.60;94.90;;;;;;5036961;28;19909;-76
2021/10/17 02:25:24;;;;;;;;;;;10.70;94.90;;;;;;5036817;28;20370;-74
2021/10/17 02:27:49;;;;;;;;;;;10.70;94.90;;;;;;5036452;28;19909;-74
2021/10/17 02:30:15;;;;;;;;;;;10.70;94.90;;;;;;5036681;28;20376;-74
2021/10/17 02:32:41;;;;;;;;;;;10.70;94.90;;;;;;5036301;28;19921;-75
2021/10/17 02:35:07;;;;;;;;;;;10.70;94.90;;;;;;5036888;28;20269;-73
2021/10/17 02:37:32;;;;;;;;;;;10.70;94.90;;;;;;5036772;28;19909;-74
2021/10/17 02:39:58;;;;;;;;;;;10.60;94.90;;;;;;5036265;28;19936;-74
2021/10/17 02:42:23;;;;;;;;;;;10.70;94.90;;;;;;5035889;28;19913;-74
2021/10/17 02:44:49;;;;;;;;;;;10.70;94.90;;;;;;5036630;28;19916;-75
2021/10/17 02:47:14;;;;;;;;;;;10.60;94.90;;;;;;5036567;28;19979;-74
2021/10/17 02:49:40;;;;;;;;;;;10.60;94.90;;;;;;5036529;28;19909;-74
2021/10/17 02:52:05;;;;;;;;;;;10.60;94.90;;;;;;5036465;28;20354;-74
2021/10/17 02:54:30;;;;;;;;;;;10.60;94.90;;;;;;5036354;28;20362;-74
2021/10/17 02:56:56;;;;;;;;;;;10.60;95.20;;;;;;5035623;28;19910;-73
2021/10/17 02:59:21;;;;;;;;;;;10.60;94.90;;;;;;5035740;28;19919;-74
2021/10/17 03:01:47;;;;;;;;;;;10.60;94.90;;;;;;5036292;28;19909;-74
2021/10/17 03:04:12;;;;;;;;;;;10.60;94.90;;;;;;5036152;28;20278;-74
2021/10/17 03:06:38;;;;;;;;;;;10.60;94.90;;;;;;5036426;28;20361;-74
2021/10/17 03:09:03;;;;;;;;;;;10.60;94.90;;;;;;5036152;28;20358;-75
2021/10/17 03:11:29;;;;;;;;;;;10.60;94.90;;;;;;5035573;28;19916;-75
2021/10/17 03:13:54;;;;;;;;;;;10.60;94.90;;;;;;5034763;28;20012;-73
2021/10/17 03:16:20;;;;;;;;;;;10.60;94.90;;;;;;5035781;28;19916;-75
2021/10/17 03:18:45;;;;;;;;;;;10.60;94.90;;;;;;5036050;28;20362;-75
2021/10/17 03:21:11;;;;;;;;;;;10.60;94.90;;;;;;5035951;28;20370;-75
2021/10/17 03:23:36;;;;;;;;;;;10.60;94.90;;;;;;5035966;28;19971;-73
2021/10/17 03:26:01;;;;;;;;;;;10.60;94.90;;;;;;5035058;28;20381;-75
2021/10/17 03:28:27;;;;;;;;;;;10.50;94.80;;;;;;5035066;28;20429;-74
2021/10/17 03:30:54;;;;;;;;;;;10.50;94.90;;;;;;5035771;28;19913;-75
2021/10/17 03:33:20;;;;;;;;;;;10.50;94.90;;;;;;5035841;28;19924;-75
2021/10/17 03:35:45;;;;;;;;;;;10.50;94.90;;;;;;5035757;28;19909;-73
2021/10/17 03:38:11;;;;;;;;;;;10.50;95.00;;;;;;5035508;28;19916;-75
2021/10/17 03:40:36;;;;;;;;;;;10.50;95.00;;;;;;5034688;28;19917;-75
2021/10/17 03:43:02;;;;;;;;;;;10.50;94.90;;;;;;5034991;28;19913;-75
2021/10/17 03:45:30;;;;;;;;;;;10.50;94.90;;;;;;5034211;28;20266;-74
2021/10/17 03:47:55;;;;;;;;;;;10.50;94.90;;;;;;5035525;28;19910;-75
2021/10/17 03:50:21;;;;;;;;;;;10.50;94.90;;;;;;5035362;28;19921;-75
2021/10/17 03:52:46;;;;;;;;;;;10.50;94.90;;;;;;5035247;28;19917;-75
2021/10/17 03:55:12;;;;;;;;;;;10.50;94.90;;;;;;5034739;28;20000;-75
2021/10/17 03:57:37;;;;;;;;;;;10.40;94.90;;;;;;5034811;28;19913;-74
2021/10/17 04:00:04;;;;;;;;;;;10.40;94.90;;;;;;5035185;28;19909;-74
2021/10/17 04:02:29;;;;;;;;;;;10.40;95.00;;;;;;5033382;28;19932;-74
2021/10/17 04:04:54;;;;;;;;;;;10.40;95.00;;;;;;5027262;28;20350;-74
2021/10/17 04:07:20;;;;;;;;;;;10.40;95.00;;;;;;5030377;28;20011;-73
2021/10/17 04:09:45;;;;;;;;;;;10.40;95.00;;;;;;5025860;28;19921;-73
2021/10/17 04:12:11;;;;;;;;;;;10.40;95.00;;;;;;5032517;28;19916;-74
2021/10/17 04:14:36;;;;;;;;;;;10.40;95.00;;;;;;5033387;28;19921;-74
2021/10/17 04:17:01;;;;;;;;;;;10.40;94.90;;;;;;5033910;28;19921;-74
2021/10/17 04:19:27;;;;;;;;;;;10.30;94.90;;;;;;5033822;28;19909;-74
2021/10/17 04:21:52;;;;;;;;;;;10.30;95.00;;;;;;5030779;28;19921;-74
2021/10/17 04:24:18;;;;;;;;;;;10.30;95.00;;;;;;5032874;28;20012;-75
2021/10/17 04:26:44;;;;;;;;;;;10.30;95.00;;;;;;5033550;28;19963;-73
2021/10/17 04:29:10;;;;;;;;;;;10.30;95.10;;;;;;5033660;28;19921;-74
2021/10/17 04:31:35;;;;;;;;;;;10.30;95.00;;;;;;5033115;28;19967;-74
2021/10/17 04:34:01;;;;;;;;;;;10.40;95.00;;;;;;5032859;28;19921;-74
2021/10/17 04:36:26;;;;;;;;;;;10.30;95.00;;;;;;5025855;28;19913;-75
2021/10/17 04:38:53;;;;;;;;;;;10.30;94.90;;;;;;5031921;28;20004;-73
2021/10/17 04:41:18;;;;;;;;;;;10.30;94.90;;;;;;5019753;28;19914;-74
2021/10/17 04:43:44;;;;;;;;;;;10.30;94.90;;;;;;5031646;28;19971;-74
2021/10/17 04:46:09;;;;;;;;;;;10.30;94.90;;;;;;5033470;28;20289;-75
2021/10/17 04:48:35;;;;;;;;;;;10.30;94.90;;;;;;5032249;28;19939;-73
2021/10/17 04:51:00;;;;;;;;;;;10.30;95.00;;;;;;5030856;28;19928;-74
2021/10/17 04:53:26;;;;;;;;;;;10.30;94.90;;;;;;5031398;28;19921;-73
2021/10/17 04:55:51;;;;;;;;;;;10.30;94.90;;;;;;5032824;28;19921;-74
2021/10/17 04:58:17;;;;;;;;;;;10.30;94.90;;;;;;5033447;28;19949;-74
2021/10/17 05:00:42;;;;;;;;;;;10.30;94.90;;;;;;5032066;28;19913;-75
2021/10/17 05:03:08;;;;;;;;;;;10.20;94.90;;;;;;5033002;28;19924;-75
2021/10/17 05:05:33;;;;;;;;;;;10.20;94.90;;;;;;5032995;28;19913;-75
2021/10/17 05:07:59;;;;;;;;;;;10.20;94.90;;;;;;5030686;28;19936;-75
2021/10/17 05:10:25;;;;;;;;;;;10.20;94.90;;;;;;5027611;28;19959;-73
2021/10/17 05:12:50;;;;;;;;;;;10.10;95.20;;;;;;5029395;28;19921;-75
2021/10/17 05:15:15;;;;;;;;;;;10.10;94.90;;;;;;5025185;28;19913;-74
2021/10/17 05:17:41;;;;;;;;;;;10.10;94.90;;;;;;5032849;28;20318;-74
2021/10/17 05:20:07;;;;;;;;;;;10.10;94.90;;;;;;5023460;28;19940;-74
2021/10/17 05:22:32;;;;;;;;;;;10.00;94.90;;;;;;5032516;28;19913;-74
2021/10/17 05:24:57;;;;;;;;;;;10.00;94.90;;;;;;5032029;28;19925;-73
2021/10/17 05:27:23;;;;;;;;;;;9.90;94.90;;;;;;5032624;28;19967;-73
2021/10/17 05:29:48;;;;;;;;;;;9.90;94.90;;;;;;5032546;28;19909;-73
2021/10/17 05:32:14;;;;;;;;;;;9.80;94.90;;;;;;5026176;28;19924;-73
2021/10/17 05:34:39;;;;;;;;;;;9.80;94.90;;;;;;5025991;28;19924;-72
2021/10/17 05:37:05;;;;;;;;;;;9.80;95.00;;;;;;5022686;28;20289;-73
2021/10/17 05:39:30;;;;;;;;;;;9.90;94.90;;;;;;5032544;28;19910;-73
2021/10/17 05:41:56;;;;;;;;;;;9.80;94.90;;;;;;5030623;28;19921;-75
2021/10/17 05:44:21;;;;;;;;;;;9.80;94.90;;;;;;5031905;28;20289;-72
2021/10/17 05:46:47;;;;;;;;;;;9.80;94.90;;;;;;5028047;28;20370;-73
2021/10/17 05:49:12;;;;;;;;;;;9.80;94.90;;;;;;5027192;28;19936;-72
2021/10/17 05:51:37;;;;;;;;;;;9.80;94.90;;;;;;5031902;28;20293;-73
2021/10/17 05:54:03;;;;;;;;;;;9.80;94.80;;;;;;5031715;28;19921;-73
2021/10/17 05:56:28;;;;;;;;;;;9.80;94.80;;;;;;5032270;28;19913;-73
2021/10/17 05:58:54;;;;;;;;;;;9.80;94.80;;;;;;5021194;28;20007;-73
2021/10/17 06:01:19;;;;;;;;;;;9.80;94.80;;;;;;5032018;28;20008;-74
2021/10/17 06:03:44;;;;;;;;;;;9.80;94.80;;;;;;5023642;28;19909;-74
2021/10/17 06:06:12;;;;;;;;;;;9.80;94.80;;;;;;5018430;28;19921;-74
2021/10/17 06:08:39;;;;;;;;;;;9.80;94.80;;;;;;5028857;28;20031;-74
2021/10/17 06:11:04;;;;;;;;;;;9.80;94.80;;;;;;5031144;28;20336;-74
2021/10/17 06:13:30;;;;;;;;;;;9.80;94.80;;;;;;5031608;28;20016;-74
2021/10/17 06:15:55;;;;;;;;;;;9.80;94.90;;;;;;5031681;28;19920;-73
2021/10/17 06:18:20;;;;;;;;;;;9.80;94.90;;;;;;5024842;28;19913;-74
2021/10/17 06:20:46;;;;;;;;;;;9.80;94.90;;;;;;5028760;28;20293;-72
2021/10/17 06:23:11;;;;;;;;;;;9.80;94.90;;;;;;5032042;28;19960;-73
2021/10/17 06:25:37;;;;;;;;;;;9.80;94.90;;;;;;5031801;28;19963;-73
2021/10/17 06:28:02;;;;;;;;;;;9.90;94.90;;;;;;5031591;28;20412;-73
2021/10/17 06:30:28;;;;;;;;;;;9.90;94.90;;;;;;5031968;28;19913;-75
2021/10/17 06:32:53;;;;;;;;;;;9.90;94.90;;;;;;5021532;28;19926;-73
2021/10/17 06:35:19;;;;;;;;;;;9.90;94.90;;;;;;5032134;28;19913;-73
2021/10/17 06:37:44;;;;;;;;;;;9.90;94.90;;;;;;5025033;28;19917;-72
2021/10/17 06:40:10;;;;;;;;;;;9.90;94.90;;;;;;5030659;28;19921;-73
2021/10/17 06:42:36;;;;;;;;;;;10.00;95.00;;;;;;5029934;28;20003;-72
2021/10/17 06:45:01;;;;;;;;;;;10.00;94.90;;;;;;5029567;28;19913;-73
2021/10/17 06:47:26;;;;;;;;;;;10.00;94.90;;;;;;5031536;28;20276;-73
2021/10/17 06:49:52;;;;;;;;;;;10.10;94.90;;;;;;5033586;28;19913;-73
2021/10/17 06:52:17;;;;;;;;;;;10.10;95.20;;;;;;5026461;28;19921;-73
2021/10/17 06:54:43;;;;;;;;;;;10.10;94.90;;;;;;5035292;28;19992;-73
2021/10/17 06:57:08;;;;;;;;;;;10.10;94.90;;;;;;5033617;28;19913;-73
2021/10/17 06:59:34;;;;;;;;;;;10.20;94.90;;;;;;5027489;28;19917;-74
2021/10/17 07:01:59;;;;;;;;;;;10.20;94.90;;;;;;5034793;28;20344;-73
2021/10/17 07:04:24;;;;;;;;;;;10.30;95.00;;;;;;5033319;28;20278;-73
2021/10/17 07:06:50;;;;;;;;;;;10.30;94.90;;;;;;5035070;28;19913;-73
2021/10/17 07:09:15;;;;;;;;;;;10.30;94.90;;;;;;5025642;28;19920;-73
2021/10/17 07:11:41;;;;;;;;;;;10.40;95.00;;;;;;5033913;28;20008;-73
2021/10/17 07:14:06;;;;;;;;;;;10.40;95.00;;;;;;5034694;28;19928;-73
2021/10/17 07:16:32;;;;;;;;;;;10.50;95.00;;;;;;5034319;28;19920;-74
2021/10/17 07:18:57;;;;;;;;;;;10.50;94.90;;;;;;5027666;28;19928;-72
2021/10/17 07:21:23;;;;;;;;;;;10.60;94.90;;;;;;5033298;28;19935;-72
2021/10/17 07:23:48;;;;;;;;;;;10.60;95.00;;;;;;5034845;28;19917;-73
2021/10/17 07:26:14;;;;;;;;;;;10.50;95.00;;;;;;5032680;28;20298;-73
2021/10/17 07:28:40;;;;;;;;;;;10.50;95.00;;;;;;5034693;28;19935;-73
2021/10/17 07:31:05;;;;;;;;;;;10.50;95.00;;;;;;5033760;28;20392;-72
2021/10/17 07:33:31;;;;;;;;;;;10.50;95.00;;;;;;5034027;28;19928;-73
2021/10/17 07:35:56;;;;;;;;;;;10.60;95.00;;;;;;5034511;28;20001;-73
2021/10/17 07:38:21;;;;;;;;;;;10.60;95.00;;;;;;5025735;28;19913;-74
2021/10/17 07:40:47;;;;;;;;;;;10.70;95.00;;;;;;5028343;28;19913;-74
2021/10/17 07:43:12;;;;;;;;;;;10.80;94.90;;;;;;5030804;28;19913;-74
2021/10/17 07:45:38;;;;;;;;;;;10.90;94.90;;;;;;5033521;28;20015;-74
2021/10/17 07:48:03;;;;;;;;;;;10.90;95.10;;;;;;5033796;28;19914;-74
2021/10/17 07:50:29;;;;;;;;;;;11.00;94.90;;;;;;5033856;28;19945;-74
2021/10/17 07:52:54;;;;;;;;;;;11.00;94.80;;;;;;5034268;28;19925;-73
2021/10/17 07:55:20;;;;;;;;;;;11.10;94.80;;;;;;5033429;28;19913;-73
2021/10/17 07:57:49;;;;;;;;;;;11.10;94.80;;;;;;5026034;28;19913;-75
2021/10/17 08:00:18;;;;;;;;;;;11.10;94.80;;;;;;5032078;28;19917;-74
2021/10/17 08:02:44;;;;;;;;;;;11.10;94.90;;;;;;5032912;28;19921;-73
2021/10/17 08:05:09;;;;;;;;;;;11.10;94.90;;;;;;5032714;28;20393;-73
2021/10/17 08:07:34;;;;;;;;;;;11.20;95.00;;;;;;5017878;28;19920;-73
2021/10/17 08:10:00;;;;;;;;;;;11.30;95.30;;;;;;5033868;28;19921;-74
2021/10/17 08:12:26;;;;;;;;;;;11.40;95.00;;;;;;5033578;28;19913;-74
2021/10/17 08:14:51;;;;;;;;;;;11.50;94.90;;;;;;5032355;28;20456;-73
2021/10/17 08:17:17;;;;;;;;;;;11.50;95.20;;;;;;5026316;28;19936;-73
2021/10/17 08:19:42;;;;;;;;;;;11.60;94.90;;;;;;5033269;28;19936;-74
2021/10/17 08:22:08;;;;;;;;;;;11.60;94.90;;;;;;5032540;28;19917;-74
2021/10/17 08:24:33;;;;;;;;;;;11.60;94.90;;;;;;5032965;28;19960;-73
2021/10/17 08:26:58;;;;;;;;;;;11.60;94.90;;;;;;5033043;28;19986;-75
2021/10/17 08:29:24;;;;;;;;;;;11.60;94.90;;;;;;5033116;28;19913;-74
2021/10/17 08:31:49;;;;;;;;;;;11.60;94.90;;;;;;5033330;28;19921;-73
2021/10/17 08:34:15;;;;;;;;;;;11.60;95.00;;;;;;5025924;28;19924;-74
2021/10/17 08:36:40;;;;;;;;;;;11.60;95.00;;;;;;5032965;28;19913;-74
2021/10/17 08:39:06;;;;;;;;;;;11.60;95.10;;;;;;5033394;28;19913;-74
2021/10/17 08:41:32;;;;;;;;;;;11.70;95.00;;;;;;5033219;28;20392;-75
2021/10/17 08:43:57;;;;;;;;;;;11.70;95.10;;;;;;5024534;28;19914;-73
2021/10/17 08:46:23;;;;;;;;;;;11.70;95.00;;;;;;5033331;28;20023;-74
2021/10/17 08:48:52;;;;;;;;;;;11.70;95.00;;;;;;5032965;28;19967;-74
2021/10/17 08:51:20;;;;;;;;;;;11.80;95.00;;;;;;5024340;28;19920;-74
2021/10/17 08:53:45;;;;;;;;;;;11.80;95.00;;;;;;5024977;28;20011;-74
2021/10/17 08:56:14;;;;;;;;;;;11.80;95.00;;;;;;5028730;28;20120;-74
2021/10/17 08:58:40;;;;;;;;;;;11.80;95.00;;;;;;5029146;28;19954;-74
2021/10/17 09:01:13;;;;;;;;;;;11.90;95.10;;;;;;5022108;28;20005;-74
2021/10/17 09:03:39;;;;;;;;;;;11.90;95.10;;;;;;5021896;28;19976;-74
2021/10/17 09:06:18;;;;;;;;;;;11.90;95.10;;;;;;5028000;28;19928;-75
2021/10/17 09:08:44;;;;;;;;;;;12.00;95.10;;;;;;5024289;28;19921;-74
2021/10/17 09:11:10;;;;;;;;;;;12.10;95.10;;;;;;5030435;28;19914;-74
2021/10/17 09:13:35;;;;;;;;;;;12.20;95.10;;;;;;5024552;28;19924;-75
2021/10/17 09:16:21;;;;;;;;;;;12.20;95.10;;;;;;5024304;28;19917;-75
2021/10/17 09:18:47;;;;;;;;;;;12.30;95.10;;;;;;5029369;28;19920;-74
2021/10/17 09:21:12;;;;;;;;;;;12.40;95.00;;;;;;5031693;28;19913;-75
2021/10/17 09:23:39;;;;;;;;;;;12.50;95.00;;;;;;5033238;28;20408;-74
2021/10/17 09:26:09;;;;;;;;;;;12.50;94.90;;;;;;5032055;28;19925;-74
2021/10/17 09:28:35;;;;;;;;;;;12.50;95.00;;;;;;5032308;28;19956;-75
2021/10/17 09:31:07;;;;;;;;;;;12.60;95.00;;;;;;5032129;28;19967;-73
2021/10/17 09:33:33;;;;;;;;;;;12.70;95.00;;;;;;5031997;28;19921;-75
2021/10/17 09:35:59;;;;;;;;;;;12.70;95.00;;;;;;5024886;28;20397;-74
2021/10/17 09:38:39;;;;;;;;;;;12.70;95.00;;;;;;5030476;28;19925;-74
2021/10/17 09:41:18;;;;;;;;;;;12.70;95.00;;;;;;5029341;28;19918;-74
2021/10/17 09:43:54;;;;;;;;;;;12.60;95.00;;;;;;5018223;28;19919;-74
2021/10/17 09:46:20;;;;;;;;;;;12.60;95.10;;;;;;5030636;28;19913;-74
2021/10/17 09:48:46;;;;;;;;;;;12.60;95.20;;;;;;5031927;28;20389;-74
2021/10/17 09:51:12;;;;;;;;;;;12.60;95.10;;;;;;5025350;28;20382;-74
2021/10/17 09:53:42;;;;;;;;;;;12.70;95.10;;;;;;5031527;28;19921;-74
2021/10/17 09:56:08;;;;;;;;;;;12.80;95.10;;;;;;5032100;28;19921;-74
2021/10/17 09:58:34;;;;;;;;;;;12.90;95.10;;;;;;5030486;28;19920;-74
2021/10/17 10:00:59;;;;;;;;;;;13.00;95.10;;;;;;5021716;28;20011;-74
2021/10/17 10:03:26;;;;;;;;;;;13.10;95.10;;;;;;5032413;28;19917;-74
2021/10/17 10:05:51;;;;;;;;;;;13.20;95.00;;;;;;5031870;28;19929;-75
2021/10/17 10:08:21;;;;;;;;;;;13.30;95.00;;;;;;5026706;28;20298;-75
2021/10/17 10:10:50;;;;;;;;;;;13.40;95.00;;;;;;5029569;28;20273;-74
2021/10/17 10:13:17;;;;;;;;;;;13.50;95.00;;;;;;5028799;28;20408;-74
2021/10/17 10:15:43;;;;;;;;;;;13.60;95.00;;;;;;5020660;28;19917;-75
2021/10/17 10:18:11;;;;;;;;;;;13.60;94.90;;;;;;5016750;28;20362;-73
2021/10/17 10:20:36;;;;;;;;;;;13.60;94.90;;;;;;5031667;28;19948;-74
2021/10/17 10:23:02;;;;;;;;;;;13.70;94.90;;;;;;5033576;28;19987;-73
2021/10/17 10:25:28;;;;;;;;;;;13.70;95.00;;;;;;5034165;28;19928;-74
2021/10/17 10:27:54;;;;;;;;;;;13.70;95.00;;;;;;5035885;28;19920;-73
2021/10/17 10:30:19;;;;;;;;;;;13.70;95.00;;;;;;5032999;28;19914;-74
2021/10/17 10:33:04;;;;;;;;;;;13.70;95.00;;;;;;5030992;28;19917;-74
2021/10/17 10:35:30;;;;;;;;;;;13.60;95.00;;;;;;5020737;28;19919;-75
2021/10/17 10:37:55;;;;;;;;;;;13.60;95.40;;;;;;5035755;28;20003;-73
2021/10/17 10:40:21;;;;;;;;;;;13.60;95.20;;;;;;5034635;28;19955;-74
2021/10/17 10:42:47;;;;;;;;;;;13.70;95.20;;;;;;5034961;28;19957;-75
2021/10/17 10:45:16;;;;;;;;;;;13.70;95.20;;;;;;5035127;28;20401;-73
2021/10/17 10:47:41;;;;;;;;;;;13.70;95.20;;;;;;5028113;28;19914;-74
2021/10/17 10:50:07;;;;;;;;;;;13.70;95.10;;;;;;5027627;28;19913;-74
2021/10/17 10:52:36;;;;;;;;;;;13.70;95.10;;;;;;5034585;28;19921;-74
2021/10/17 10:55:08;;;;;;;;;;;13.70;95.20;;;;;;5035010;28;19947;-74
2021/10/17 10:57:41;;;;;;;;;;;13.70;95.30;;;;;;5033701;28;19913;-74
2021/10/17 11:00:17;;;;;;;;;;;13.70;95.30;;;;;;5029854;28;19913;-74
2021/10/17 11:03:02;;;;;;;;;;;13.80;95.30;;;;;;5035114;28;19920;-73
2021/10/17 11:05:28;;;;;;;;;;;13.90;95.30;;;;;;5027645;28;19920;-74
2021/10/17 11:08:09;;;;;;;;;;;14.00;95.20;;;;;;5032144;28;20508;-73
2021/10/17 11:10:35;;;;;;;;;;;14.10;95.20;;;;;;5031564;28;19925;-72
2021/10/17 11:13:01;;;;;;;;;;;14.30;95.20;;;;;;5025850;28;19921;-73
2021/10/17 11:15:28;;;;;;;;;;;14.40;95.10;;;;;;5034434;28;19989;-73
2021/10/17 11:17:54;;;;;;;;;;;14.50;95.10;;;;;;5026566;28;19913;-74
2021/10/17 11:20:21;;;;;;;;;;;14.60;95.10;;;;;;5034971;28;19920;-74
2021/10/17 11:22:47;;;;;;;;;;;14.70;95.00;;;;;;5033985;28;20269;-74
2021/10/17 11:25:14;;;;;;;;;;;14.90;95.00;;;;;;5034441;28;19975;-74
2021/10/17 11:27:39;;;;;;;;;;;14.90;95.00;;;;;;5034780;28;19913;-73
2021/10/17 11:30:05;;;;;;;;;;;15.00;95.00;;;;;;5032984;28;19919;-71
2021/10/17 11:32:34;;;;;;;;;;;15.00;95.00;;;;;;5033597;28;19913;-71
2021/10/17 11:35:01;;;;;;;;;;;15.00;95.10;;;;;;5033862;28;19928;-72
2021/10/17 11:37:27;;;;;;;;;;;15.00;95.00;;;;;;5026370;28;19935;-73
2021/10/17 11:39:56;;;;;;;;;;;15.00;95.40;;;;;;5034911;28;20263;-73
2021/10/17 11:42:24;;;;;;;;;;;15.00;95.20;;;;;;5026156;28;20354;-72
2021/10/17 11:44:50;;;;;;;;;;;15.00;95.20;;;;;;5034482;28;20399;-73
2021/10/17 11:47:17;;;;;;;;;;;15.10;95.20;;;;;;5033785;28;19920;-71
2021/10/17 11:49:42;;;;;;;;;;;15.20;95.30;;;;;;5028597;28;19959;-72
2021/10/17 11:52:11;;;;;;;;;;;15.20;95.20;;;;;;5029759;28;19921;-72
2021/10/17 11:54:40;;;;;;;;;;;15.20;95.20;;;;;;5033952;28;20086;-72
2021/10/17 11:57:06;;;;;;;;;;;15.30;95.30;;;;;;5028663;28;19917;-73
2021/10/17 11:59:31;;;;;;;;;;;15.30;95.40;;;;;;5024210;28;19920;-71
2021/10/17 12:01:59;;;;;;;;;;;15.50;95.40;;;;;;5034154;28;19913;-73
2021/10/17 12:04:40;;;;;;;;;;;15.50;95.60;;;;;;5034146;28;19917;-73
2021/10/17 12:07:06;;;;;;;;;;;15.60;95.40;;;;;;5022693;28;20392;-73
2021/10/17 12:09:33;;;;;;;;;;;15.70;95.30;;;;;;5030774;28;19922;-73
2021/10/17 12:11:59;;;;;;;;;;;15.70;95.30;;;;;;5030846;28;19917;-73
2021/10/17 12:14:25;;;;;;;;;;;15.70;95.30;;;;;;5029311;28;20431;-73
2021/10/17 12:16:54;;;;;;;;;;;15.70;95.20;;;;;;5033314;28;19913;-72
2021/10/17 12:19:24;;;;;;;;;;;15.70;95.20;;;;;;5033206;28;20000;-73
2021/10/17 12:21:49;;;;;;;;;;;15.70;95.20;;;;;;5023602;28;20000;-72
2021/10/17 12:24:15;;;;;;;;;;;15.60;95.10;;;;;;5033621;28;20386;-73
2021/10/17 12:26:54;;;;;;;;;;;15.60;95.20;;;;;;5032295;28;19913;-73
2021/10/17 12:29:21;;;;;;;;;;;15.50;95.10;;;;;;5018398;28;19912;-73
2021/10/17 12:31:57;;;;;;;;;;;15.50;95.10;;;;;;5026883;28;19913;-72
2021/10/17 12:34:37;;;;;;;;;;;15.50;95.20;;;;;;5032134;28;19921;-72
2021/10/17 12:37:03;;;;;;;;;;;15.40;95.10;;;;;;5023532;28;19935;-72
2021/10/17 12:39:28;;;;;;;;;;;15.40;95.10;;;;;;5033448;28;20429;-73
2021/10/17 12:41:58;;;;;;;;;;;15.40;95.10;;;;;;5033443;28;19916;-73
2021/10/17 12:44:24;;;;;;;;;;;15.30;95.10;;;;;;5031876;28;19913;-73
2021/10/17 12:47:02;;;;;;;;;;;15.40;95.20;;;;;;5032940;28;19959;-72
2021/10/17 12:49:36;;;;;;;;;;;15.40;95.20;;;;;;5025087;28;19913;-72
2021/10/17 12:52:02;;;;;;;;;;;15.40;95.10;;;;;;5031663;28;19915;-72
2021/10/17 12:54:28;;;;;;;;;;;15.40;95.10;;;;;;5032596;28;19921;-73
2021/10/17 12:56:58;;;;;;;;;;;15.50;95.10;;;;;;5032504;28;19999;-72
2021/10/17 12:59:25;;;;;;;;;;;15.50;95.10;;;;;;5024976;28;20385;-73
2021/10/17 13:02:06;;;;;;;;;;;15.60;95.20;;;;;;5029365;28;19917;-73
2021/10/17 13:04:51;;;;;;;;;;;15.60;95.10;;;;;;5022445;28;19913;-72
2021/10/17 13:07:22;;;;;;;;;;;15.70;95.00;;;;;;5033030;28;19913;-72
2021/10/17 13:09:49;;;;;;;;;;;15.70;94.90;;;;;;5017584;28;19920;-72
2021/10/17 13:12:24;;;;;;;;;;;15.60;94.90;;;;;;5032950;28;20381;-73
2021/10/17 13:14:57;;;;;;;;;;;15.60;94.90;;;;;;5023195;28;21268;-73
2021/10/17 13:17:23;;;;;;;;;;;15.60;95.00;;;;;;5032831;28;19956;-73
2021/10/17 13:19:48;;;;;;;;;;;15.70;95.00;;;;;;5030246;28;20370;-73
2021/10/17 13:22:14;;;;;;;;;;;15.80;95.00;;;;;;5024377;28;19919;-74
2021/10/17 13:24:39;;;;;;;;;;;15.80;94.90;;;;;;5032083;28;20016;-72
2021/10/17 13:27:05;;;;;;;;;;;15.90;94.80;;;;;;5028256;28;19924;-72
2021/10/17 13:29:32;;;;;;;;;;;15.80;94.80;;;;;;5028072;28;20373;-72
2021/10/17 13:31:57;;;;;;;;;;;15.80;94.80;;;;;;5031981;28;20333;-74
2021/10/17 13:34:22;;;;;;;;;;;15.70;94.80;;;;;;5031352;28;19968;-72
2021/10/17 13:36:48;;;;;;;;;;;15.70;94.80;;;;;;5021927;28;19956;-74
2021/10/17 13:39:13;;;;;;;;;;;15.60;94.80;;;;;;5022432;28;20366;-74
2021/10/17 13:41:39;;;;;;;;;;;15.60;94.80;;;;;;5029599;28;19924;-73
2021/10/17 13:44:04;;;;;;;;;;;15.50;94.80;;;;;;5029984;28;19921;-74
2021/10/17 13:46:31;;;;;;;;;;;15.50;94.90;;;;;;5029229;28;20369;-74
2021/10/17 13:48:57;;;;;;;;;;;15.50;94.90;;;;;;5028677;28;19917;-74
2021/10/17 13:51:22;;;;;;;;;;;15.40;94.90;;;;;;5029819;28;19936;-74
2021/10/17 13:53:50;;;;;;;;;;;15.40;94.90;;;;;;5021881;28;20262;-74
2021/10/17 13:56:17;;;;;;;;;;;15.40;94.90;;;;;;5029254;28;19928;-74
2021/10/17 13:58:42;;;;;;;;;;;15.30;95.20;;;;;;5033067;28;20011;-74
2021/10/17 14:01:09;;;;;;;;;;;15.20;94.90;;;;;;5031008;28;20008;-74
2021/10/17 14:03:34;;;;;;;;;;;15.10;94.90;;;;;;5033041;28;19928;-74
2021/10/17 14:06:00;;;;;;;;;;;15.00;95.20;;;;;;5033261;28;19917;-74
2021/10/17 14:08:25;;;;;;;;;;;14.90;95.00;;;;;;5034023;28;19924;-74
2021/10/17 14:10:54;;;;;;;;;;;14.90;95.10;;;;;;5026048;28;20349;-74
2021/10/17 14:13:20;;;;;;;;;;;14.80;95.10;;;;;;5017945;28;20040;-75
2021/10/17 14:15:45;;;;;;;;;;;14.80;95.10;;;;;;5033617;28;19929;-75